Time;durP1;ratioP1;P1;durP2;ratioP2;P2;SDS_P1;SDS_P2;PMS_P1;PMS_P2;Temp;Humidity;BMP_temperature;BMP_pressure;BME280_temperature;BME280_humidity;BME280_pressure;Samples;Min_cycle;Max_cycle;Signal;HPM_P1;HPM_P2
2022/09/03 00:01:23;;;;;;;3.45;1.60;;;;;;;9.95;70.26;100049.84;5083308;28;20078;-58
2022/09/03 00:03:58;;;;;;;3.35;1.67;;;;;;;10.02;70.54;100035.97;5066991;28;20033;-58
2022/09/03 00:06:33;;;;;;;1.70;1.60;;;;;;;10.02;71.71;100037.72;5084378;28;20220;-58
2022/09/03 00:09:12;;;;;;;1.73;1.40;;;;;;;9.96;70.26;100035.19;5085637;28;20086;-59
2022/09/03 00:12:16;;;;;;;3.22;1.60;;;;;;;9.96;71.13;100048.13;5085624;28;20066;-59
2022/09/03 00:14:48;;;;;;;1.73;1.50;;;;;;;9.84;71.71;100042.22;5070698;28;20032;-58
2022/09/03 00:17:15;;;;;;;;;;;;;;;9.92;71.26;100056.78;5096370;28;20036;-58
2022/09/03 00:19:59;;;;;;;4.35;1.90;;;;;;;9.58;72.02;100003.75;5099557;28;19910;-59
2022/09/03 00:22:33;;;;;;;1.90;1.48;;;;;;;9.87;71.98;100045.66;5088847;28;20023;-59
2022/09/03 00:25:03;;;;;;;2.42;1.40;;;;;;;9.57;71.38;100012.38;5104334;28;20028;-59
2022/09/03 00:27:32;;;;;;;2.35;1.45;;;;;;;9.88;70.75;100060.31;5104801;28;20312;-59
2022/09/03 00:30:07;;;;;;;2.40;1.60;;;;;;;9.92;71.77;100070.59;5101462;28;20027;-59
2022/09/03 00:32:38;;;;;;;2.83;1.50;;;;;;;9.89;71.81;100077.53;5093490;28;20037;-59
2022/09/03 00:35:08;;;;;;;2.15;1.35;;;;;;;9.53;71.92;100023.63;5073945;28;20076;-59
2022/09/03 00:37:33;;;;;;;2.75;1.60;;;;;;;9.85;72.02;100085.34;5084781;28;20024;-58
2022/09/03 00:40:01;;;;;;;1.45;1.20;;;;;;;9.85;71.32;100090.50;5085062;28;20036;-59
2022/09/03 00:42:49;;;;;;;1.58;1.30;;;;;;;9.51;71.83;100040.91;5084213;28;20028;-59
2022/09/03 00:45:56;;;;;;;1.80;1.40;;;;;;;9.87;71.52;100097.41;5082860;28;20214;-58
2022/09/03 00:48:27;;;;;;;2.38;1.55;;;;;;;9.55;72.33;100057.22;5064014;28;20102;-59
2022/09/03 00:51:01;;;;;;;1.92;1.42;;;;;;;9.79;71.94;100090.59;5083157;28;20048;-59
2022/09/03 00:53:39;;;;;;;1.60;1.50;;;;;;;9.48;72.46;100048.69;5083736;28;20025;-57
2022/09/03 00:56:14;;;;;;;2.50;1.33;;;;;;;9.75;72.42;100108.72;5079603;28;20033;-59
2022/09/03 00:59:02;;;;;;;5.07;1.70;;;;;;;9.41;72.08;100049.66;5075171;28;20036;-59
2022/09/03 01:02:05;;;;;;;3.78;1.70;;;;;;;9.68;72.60;100097.63;5101267;28;20047;-58
2022/09/03 01:04:46;;;;;;;2.92;1.40;;;;;;;9.33;72.53;100041.97;5083885;28;20101;-59
2022/09/03 01:07:26;;;;;;;3.35;1.60;;;;;;;9.67;73.08;100106.22;5084562;28;20052;-59
2022/09/03 01:10:00;;;;;;;2.65;1.40;;;;;;;9.68;72.91;100102.78;5084566;28;20269;-58
2022/09/03 01:12:47;;;;;;;3.38;1.55;;;;;;;9.68;72.74;100113.97;5082623;28;20213;-58
2022/09/03 01:15:26;;;;;;;3.83;1.58;;;;;;;9.66;72.85;100120.03;5084222;28;20035;-59
2022/09/03 01:18:10;;;;;;;2.13;1.40;;;;;;;9.70;72.87;100102.75;5084563;28;20024;-58
2022/09/03 01:21:00;;;;;;;3.55;1.40;;;;;;;9.69;73.14;100109.69;5083962;28;20029;-58
2022/09/03 01:23:44;;;;;;;2.20;1.50;;;;;;;9.67;72.73;100112.25;5083985;28;20103;-58
2022/09/03 01:26:30;;;;;;;3.78;1.30;;;;;;;9.68;72.60;100118.31;5099813;28;20190;-58
2022/09/03 01:29:07;;;;;;;1.95;1.27;;;;;;;9.66;72.96;100113.16;5083925;28;20317;-59
2022/09/03 01:31:47;;;;;;;5.32;1.65;;;;;;;9.28;72.61;100056.69;5083962;28;20038;-58
2022/09/03 01:34:39;;;;;;;2.45;1.60;;;;;;;9.56;73.82;100111.50;5083754;28;20051;-58
2022/09/03 01:37:28;;;;;;;1.95;1.42;;;;;;;9.52;74.11;100109.84;5083840;28;20043;-58
2022/09/03 01:40:16;;;;;;;2.17;1.35;;;;;;;9.53;73.11;100113.28;5083871;28;20213;-59
2022/09/03 01:43:02;;;;;;;1.85;1.48;;;;;;;9.52;73.36;100120.19;5075768;28;20024;-59
2022/09/03 01:45:30;;;;;;;4.22;1.65;;;;;;;9.54;72.90;100126.19;5068150;28;20321;-58
2022/09/03 01:48:17;;;;;;;5.00;1.60;;;;;;;9.53;73.70;100133.97;5082966;28;20089;-58
2022/09/03 01:50:58;;;;;;;2.05;1.67;;;;;;;9.17;73.49;100079.19;5082839;28;20032;-59
2022/09/03 01:53:44;;;;;;;2.00;1.73;;;;;;;9.46;73.58;100139.22;5083958;28;20028;-58
2022/09/03 01:56:10;;;;;;;4.88;1.90;;;;;;;9.47;73.68;100140.91;5083498;28;20039;-58
2022/09/03 01:58:46;;;;;;;2.67;1.33;;;;;;;9.42;73.81;100142.69;5087928;28;20052;-58
2022/09/03 02:01:32;;;;;;;2.53;1.40;;;;;;;9.30;73.81;100119.53;5102740;28;20028;-58
2022/09/03 02:03:58;;;;;;;3.22;1.50;;;;;;;9.39;74.13;100142.72;5083608;28;20241;-59
2022/09/03 02:06:28;;;;;;;1.90;1.58;;;;;;;9.37;74.89;100152.19;5083201;28;20079;-58
2022/09/03 02:08:53;;;;;;;2.83;1.35;;;;;;;9.34;74.54;100152.22;5083403;28;20213;-59
2022/09/03 02:11:19;;;;;;;2.00;1.30;;;;;;;9.35;74.79;100156.53;5083528;28;20024;-59
2022/09/03 02:13:51;;;;;;;2.15;1.40;;;;;;;9.25;74.18;100154.88;5083022;28;20086;-58
2022/09/03 02:16:23;;;;;;;2.75;1.30;;;;;;;9.21;74.78;100151.47;5084859;28;20089;-58
2022/09/03 02:19:11;;;;;;;1.50;1.40;;;;;;;8.96;74.93;100107.78;5103665;28;20116;-59
2022/09/03 02:21:39;;;;;;;1.63;1.40;;;;;;;9.34;74.66;100167.75;5063314;28;20078;-58
2022/09/03 02:24:08;;;;;;;2.03;1.50;;;;;;;9.05;74.46;100121.47;5095817;28;20028;-59
2022/09/03 02:26:34;;;;;;;4.55;1.70;;;;;;;9.21;74.42;100158.38;5091130;28;20039;-59
2022/09/03 02:29:01;;;;;;;1.80;1.40;;;;;;;9.31;75.51;100170.34;5082514;28;20074;-57
2022/09/03 02:31:27;;;;;;;4.05;1.70;;;;;;;9.21;75.15;100168.72;5082934;28;20111;-58
2022/09/03 02:33:55;;;;;;;1.85;1.63;;;;;;;8.86;75.48;100116.44;5082911;28;20090;-58
2022/09/03 02:36:27;;;;;;;3.25;1.60;;;;;;;8.76;75.18;100117.38;5101785;28;20069;-58
2022/09/03 02:38:52;;;;;;;2.25;1.73;;;;;;;9.22;75.13;100180.75;5087782;28;20049;-59
2022/09/03 02:41:18;;;;;;;3.17;1.80;;;;;;;9.17;75.74;100188.56;5083412;28;20047;-58
2022/09/03 02:44:06;;;;;;;2.20;1.70;;;;;;;9.25;75.38;100183.31;5083127;28;20086;-59
2022/09/03 02:47:09;;;;;;;1.60;1.50;;;;;;;9.16;75.23;100181.66;5082842;28;20072;-58
2022/09/03 02:49:35;;;;;;;4.38;1.73;;;;;;;9.17;74.77;100174.78;5083049;28;20040;-58
2022/09/03 02:52:11;;;;;;;1.88;1.77;;;;;;;9.16;75.37;100168.75;5085309;28;20067;-58
2022/09/03 02:54:41;;;;;;;2.33;1.88;;;;;;;9.20;75.34;100192.84;5086968;28;20035;-59
2022/09/03 02:57:08;;;;;;;2.58;1.70;;;;;;;9.19;74.92;100183.38;5085776;28;20276;-58
2022/09/03 02:59:34;;;;;;;2.80;1.83;;;;;;;9.20;75.25;100188.53;5086876;28;20043;-59
2022/09/03 03:02:01;;;;;;;2.20;1.80;;;;;;;9.22;74.75;100193.69;5086506;28;20028;-59
2022/09/03 03:04:27;;;;;;;6.38;1.88;;;;;;;9.21;75.04;100194.56;5086533;28;20043;-58
2022/09/03 03:06:52;;;;;;;2.58;1.65;;;;;;;9.14;75.35;100192.00;5087181;28;20266;-58
2022/09/03 03:09:18;;;;;;;2.85;1.70;;;;;;;9.15;75.18;100196.31;5103632;28;20031;-59
2022/09/03 03:11:44;;;;;;;2.83;2.30;;;;;;;9.13;75.79;100203.22;5093814;28;20031;-59
2022/09/03 03:14:09;;;;;;;2.60;2.20;;;;;;;9.11;75.51;100198.94;5085285;28;20078;-58
2022/09/03 03:16:35;;;;;;;2.10;1.90;;;;;;;9.14;75.93;100198.91;5086560;28;20037;-59
2022/09/03 03:19:01;;;;;;;3.90;1.80;;;;;;;9.13;75.86;100205.78;5086595;28;20227;-58
2022/09/03 03:21:27;;;;;;;2.50;1.77;;;;;;;9.14;76.16;100210.09;5084958;28;20325;-58
2022/09/03 03:23:53;;;;;;;2.28;2.00;;;;;;;9.15;75.91;100209.25;5079968;28;20252;-57
2022/09/03 03:26:21;;;;;;;1.75;1.42;;;;;;;8.83;75.07;100156.94;5086315;28;20035;-58
2022/09/03 03:28:49;;;;;;;2.15;1.80;;;;;;;9.06;75.89;100211.88;5082559;28;20021;-59
2022/09/03 03:31:17;;;;;;;2.40;1.90;;;;;;;9.07;75.99;100207.59;5083185;28;20043;-58
2022/09/03 03:33:43;;;;;;;2.17;1.83;;;;;;;9.03;75.91;100217.06;5076791;28;20021;-58
2022/09/03 03:36:14;;;;;;;3.08;1.88;;;;;;;8.92;75.43;100187.84;5085365;28;20057;-59
2022/09/03 03:38:40;;;;;;;2.83;2.05;;;;;;;9.15;75.37;100229.06;5077737;28;20024;-59
2022/09/03 03:41:27;;;;;;;3.22;1.85;;;;;;;8.88;75.78;100165.50;5085635;28;20028;-59
2022/09/03 03:43:54;;;;;;;3.30;1.88;;;;;;;9.27;75.37;100226.38;5091087;28;20031;-58
2022/09/03 03:46:21;;;;;;;4.40;2.70;;;;;;;9.35;75.00;100234.09;5105912;28;20070;-58
2022/09/03 03:48:47;;;;;;;2.40;2.13;;;;;;;9.30;75.14;100223.75;5105194;28;20028;-59
2022/09/03 03:51:13;;;;;;;2.10;1.83;;;;;;;9.30;75.11;100234.09;5105654;28;20062;-59
2022/09/03 03:53:39;;;;;;;2.58;2.20;;;;;;;9.35;74.69;100231.50;5093483;28;20340;-59
2022/09/03 03:56:08;;;;;;;4.13;2.10;;;;;;;9.41;74.47;100226.28;5084895;28;20229;-58
2022/09/03 03:58:34;;;;;;;4.22;1.92;;;;;;;9.45;74.55;100222.81;5085154;28;20040;-58
2022/09/03 04:01:06;;;;;;;2.20;1.77;;;;;;;9.18;74.33;100158.38;5085322;28;20112;-59
2022/09/03 04:03:32;;;;;;;2.38;2.17;;;;;;;9.42;74.50;100209.91;5081037;28;20059;-59
2022/09/03 04:05:59;;;;;;;2.50;2.10;;;;;;;9.56;73.44;100227.00;5066629;28;20029;-60
2022/09/03 04:08:28;;;;;;;2.22;1.83;;;;;;;9.57;73.28;100226.16;5074950;28;20077;-60
2022/09/03 04:10:59;;;;;;;2.75;2.30;;;;;;;9.23;73.33;100175.56;5090838;28;20031;-59
2022/09/03 04:13:38;;;;;;;3.28;2.45;;;;;;;9.60;73.33;100234.72;5091755;28;20040;-59
2022/09/03 04:16:08;;;;;;;2.08;1.85;;;;;;;9.52;73.80;100220.16;5083840;28;20036;-59
2022/09/03 04:18:36;;;;;;;3.70;2.10;;;;;;;9.61;73.50;100238.19;5084771;28;20025;-59
2022/09/03 04:21:05;;;;;;;3.13;1.90;;;;;;;9.35;72.87;100186.69;5084875;28;20024;-59
2022/09/03 04:23:33;;;;;;;2.20;1.92;;;;;;;9.79;73.57;100237.16;5084786;28;20024;-59
2022/09/03 04:25:59;;;;;;;3.95;2.22;;;;;;;9.87;73.13;100242.28;5084829;28;20194;-60
2022/09/03 04:28:25;;;;;;;2.85;2.00;;;;;;;9.91;72.58;100247.38;5084601;28;20104;-59
2022/09/03 04:30:51;;;;;;;2.40;2.20;;;;;;;9.89;72.93;100253.44;5084751;28;20343;-59
2022/09/03 04:33:17;;;;;;;3.13;2.08;;;;;;;9.87;73.76;100242.28;5084457;28;20213;-59
2022/09/03 04:35:43;;;;;;;3.28;1.95;;;;;;;9.94;73.24;100244.78;5084491;28;20027;-59
2022/09/03 04:38:09;;;;;;;4.13;2.55;;;;;;;9.87;73.06;100229.34;5084140;28;20032;-59
2022/09/03 04:40:36;;;;;;;4.38;1.92;;;;;;;9.99;72.60;100244.72;5084605;28;20036;-59
2022/09/03 04:43:02;;;;;;;2.42;2.22;;;;;;;10.01;73.03;100241.25;5084353;28;20025;-59
2022/09/03 04:45:28;;;;;;;4.50;2.50;;;;;;;10.07;72.26;100250.69;5084398;28;20043;-61
2022/09/03 04:48:01;;;;;;;2.75;2.28;;;;;;;10.05;72.01;100247.25;5084134;28;20021;-60
2022/09/03 04:50:28;;;;;;;3.67;2.40;;;;;;;10.10;72.29;100242.88;5084271;28;20221;-58
2022/09/03 04:52:58;;;;;;;3.58;2.22;;;;;;;10.22;71.64;100248.78;5083072;28;20309;-59
2022/09/03 04:55:24;;;;;;;3.13;2.28;;;;;;;10.24;71.98;100241.88;5084455;28;20385;-59
2022/09/03 04:57:50;;;;;;;2.60;2.28;;;;;;;10.26;71.36;100241.00;5083811;28;20044;-59
2022/09/03 05:00:17;;;;;;;9.27;2.67;;;;;;;10.19;72.23;100239.34;5084014;28;20051;-58
2022/09/03 05:02:48;;;;;;;3.03;2.50;;;;;;;10.29;71.45;100247.84;5094157;28;20028;-58
2022/09/03 05:05:14;;;;;;;4.20;2.53;;;;;;;10.34;71.25;100249.56;5075973;28;20028;-59
2022/09/03 05:07:40;;;;;;;3.22;2.58;;;;;;;10.39;71.67;100249.53;5077873;28;20029;-59
2022/09/03 05:10:08;;;;;;;4.30;2.40;;;;;;;10.00;71.39;100197.28;5084121;28;20255;-59
2022/09/03 05:12:34;;;;;;;3.33;2.50;;;;;;;10.45;71.45;100251.19;5095466;28;20213;-59
2022/09/03 05:15:00;;;;;;;2.90;2.28;;;;;;;10.48;70.96;100251.16;5083402;28;20035;-60
2022/09/03 05:17:28;;;;;;;3.75;2.58;;;;;;;10.57;70.55;100255.34;5093371;28;20027;-59
2022/09/03 05:19:53;;;;;;;3.45;2.58;;;;;;;10.60;70.60;100255.31;5096228;28;20292;-60
2022/09/03 05:22:20;;;;;;;3.17;2.33;;;;;;;10.61;70.62;100260.47;5099383;28;20017;-59
2022/09/03 05:24:48;;;;;;;3.08;2.42;;;;;;;10.66;70.55;100260.41;5083598;28;20040;-59
2022/09/03 05:27:18;;;;;;;5.38;2.40;;;;;;;10.67;70.54;100262.13;5083396;28;20048;-60
2022/09/03 05:29:44;;;;;;;5.25;2.30;;;;;;;10.77;70.27;100268.06;5083788;28;20033;-60
2022/09/03 05:32:11;;;;;;;2.22;2.03;;;;;;;10.84;69.95;100264.50;5083795;28;20066;-58
2022/09/03 05:34:37;;;;;;;2.78;2.47;;;;;;;10.94;69.92;100265.25;5086428;28;20313;-59
2022/09/03 05:37:03;;;;;;;2.95;2.30;;;;;;;11.03;69.55;100278.06;5104029;28;20027;-60
2022/09/03 05:39:28;;;;;;;2.90;2.28;;;;;;;11.04;69.22;100272.88;5102802;28;20051;-59
2022/09/03 05:41:54;;;;;;;3.25;2.40;;;;;;;11.07;69.62;100271.97;5090529;28;20028;-59
2022/09/03 05:44:23;;;;;;;2.25;2.03;;;;;;;11.12;69.07;100279.69;5091752;28;20028;-59
2022/09/03 05:46:50;;;;;;;3.92;2.45;;;;;;;11.21;69.06;100275.22;5103568;28;20020;-60
2022/09/03 05:49:16;;;;;;;3.95;2.33;;;;;;;11.28;69.10;100281.16;5103986;28;20020;-59
2022/09/03 05:51:42;;;;;;;2.80;2.20;;;;;;;11.33;69.28;100279.38;5103555;28;20095;-60
2022/09/03 05:54:09;;;;;;;3.60;2.58;;;;;;;11.36;68.71;100291.44;5088140;28;20035;-60
2022/09/03 05:56:38;;;;;;;4.03;2.17;;;;;;;11.51;68.13;100293.78;5072962;28;20025;-60
2022/09/03 05:59:07;;;;;;;6.32;2.20;;;;;;;11.14;67.27;100226.06;5081692;28;20036;-59
2022/09/03 06:01:39;;;;;;;4.28;2.30;;;;;;;11.54;67.73;100291.16;5082840;28;20397;-60
2022/09/03 06:04:07;;;;;;;3.60;2.10;;;;;;;11.32;67.72;100245.69;5082719;28;20378;-59
2022/09/03 06:06:35;;;;;;;2.70;1.92;;;;;;;11.71;67.63;100298.69;5082928;28;20025;-60
2022/09/03 06:09:07;;;;;;;2.60;2.40;;;;;;;11.43;67.57;100248.97;5082946;28;20066;-60
2022/09/03 06:11:33;;;;;;;;;;;;;;;11.76;65.68;100306.38;5083819;28;20035;-57
2022/09/03 06:14:00;;;;;;;2.67;1.80;;;;;;;11.72;66.75;100297.78;5082203;28;20085;-59
2022/09/03 06:16:30;;;;;;;5.60;2.13;;;;;;;11.82;65.94;100303.69;5083146;28;20055;-60
2022/09/03 06:18:56;;;;;;;5.68;2.05;;;;;;;11.95;66.09;100313.91;5083517;28;20052;-59
2022/09/03 06:21:22;;;;;;;5.07;2.80;;;;;;;12.01;65.91;100308.59;5093254;28;20023;-58
2022/09/03 06:23:52;;;;;;;4.13;2.15;;;;;;;11.91;65.32;100315.63;5082647;28;20095;-59
2022/09/03 06:26:19;;;;;;;5.28;2.20;;;;;;;11.98;65.10;100303.47;5082291;28;20043;-59
2022/09/03 06:28:47;;;;;;;3.55;2.45;;;;;;;12.09;65.39;100310.16;5082472;28;20028;-59
2022/09/03 06:31:15;;;;;;;4.10;2.28;;;;;;;11.63;64.92;100250.38;5081361;28;20314;-59
2022/09/03 06:33:42;;;;;;;3.22;2.40;;;;;;;12.03;65.48;100304.25;5082758;28;20146;-58
2022/09/03 06:36:14;;;;;;;4.40;2.50;;;;;;;11.64;64.91;100262.47;5082839;28;20036;-58
2022/09/03 06:38:41;;;;;;;4.38;2.20;;;;;;;12.15;64.21;100313.56;5082884;28;20062;-58
2022/09/03 06:41:22;;;;;;;2.33;2.10;;;;;;;12.26;64.93;100315.06;5082906;28;20317;-58
2022/09/03 06:43:48;;;;;;;3.55;1.80;;;;;;;12.26;65.03;100316.81;5082899;28;20272;-58
2022/09/03 06:46:16;;;;;;;4.10;2.00;;;;;;;12.19;64.41;100273.66;5083235;28;20025;-58
2022/09/03 06:48:42;;;;;;;2.10;1.75;;;;;;;12.56;63.42;100322.31;5082734;28;20043;-58
2022/09/03 06:51:19;;;;;;;3.22;1.73;;;;;;;12.15;62.56;100267.66;5082826;28;20021;-58
2022/09/03 06:53:50;;;;;;;3.13;1.20;;;;;;;12.17;61.35;100271.09;5082807;28;20032;-58
2022/09/03 06:56:27;;;;;;;3.22;1.80;;;;;;;12.47;62.45;100327.69;5082256;28;20091;-58
2022/09/03 06:58:56;;;;;;;4.25;1.50;;;;;;;12.65;62.32;100314.31;5076831;28;20095;-58
2022/09/03 07:01:29;;;;;;;3.75;1.30;;;;;;;12.72;61.88;100328.06;5062734;28;20032;-59
2022/09/03 07:03:57;;;;;;;3.67;1.67;;;;;;;12.76;61.31;100324.53;5082571;28;20029;-58
2022/09/03 07:06:32;;;;;;;4.15;1.33;;;;;;;12.58;61.02;100289.34;5082505;28;20084;-59
2022/09/03 07:08:58;;;;;;;2.35;1.40;;;;;;;12.94;60.83;100324.16;5082501;28;20031;-58
2022/09/03 07:11:30;;;;;;;3.45;1.60;;;;;;;12.68;60.20;100295.22;5091353;28;20212;-60
2022/09/03 07:13:57;;;;;;;3.05;2.60;;;;;;;12.62;60.30;100279.78;5085087;28;20067;-60
2022/09/03 07:16:28;;;;;;;3.17;1.90;;;;;;;12.71;60.46;100279.56;5082773;28;20326;-58
2022/09/03 07:18:54;;;;;;;1.83;1.60;;;;;;;12.72;58.84;100322.88;5082735;28;20033;-58
2022/09/03 07:21:29;;;;;;;2.17;1.50;;;;;;;12.91;59.84;100319.00;5082647;28;20087;-58
2022/09/03 07:23:55;;;;;;;4.18;1.60;;;;;;;13.03;59.24;100330.06;5082334;28;20313;-58
2022/09/03 07:26:26;;;;;;;2.08;1.67;;;;;;;13.18;59.42;100329.72;5090188;28;20032;-59
2022/09/03 07:28:53;;;;;;;3.60;1.83;;;;;;;13.15;57.75;100329.75;5067824;28;20035;-59
2022/09/03 07:31:24;;;;;;;2.60;1.40;;;;;;;13.27;58.42;100328.66;5082173;28;20329;-59
2022/09/03 07:34:04;;;;;;;2.50;1.60;;;;;;;13.12;57.95;100332.44;5082138;28;20032;-59
2022/09/03 07:36:30;;;;;;;5.18;1.88;;;;;;;13.29;58.71;100330.31;5082009;28;20024;-59
2022/09/03 07:38:57;;;;;;;4.30;1.60;;;;;;;13.41;58.70;100325.75;5084171;28;20027;-58
2022/09/03 07:41:24;;;;;;;2.58;1.50;;;;;;;13.48;59.44;100324.72;5086401;28;20034;-57
2022/09/03 07:43:51;;;;;;;1.67;1.58;;;;;;;13.57;58.06;100321.94;5085715;28;20029;-58
2022/09/03 07:46:22;;;;;;;3.15;1.90;;;;;;;13.60;57.64;100308.84;5086136;28;20087;-58
2022/09/03 07:48:57;;;;;;;3.53;1.92;;;;;;;13.78;57.83;100325.78;5085578;28;20020;-58
2022/09/03 07:51:25;;;;;;;3.95;1.77;;;;;;;13.81;57.51;100338.72;5085703;28;20039;-59
2022/09/03 07:53:53;;;;;;;2.70;1.45;;;;;;;13.88;57.18;100338.53;5085689;28;20362;-58
2022/09/03 07:56:19;;;;;;;2.97;1.63;;;;;;;13.94;56.23;100312.38;5090625;28;20103;-59
2022/09/03 07:58:46;;;;;;;3.00;1.55;;;;;;;13.96;56.94;100321.00;5068575;28;20362;-59
2022/09/03 08:01:17;;;;;;;3.60;1.40;;;;;;;13.75;55.26;100322.38;5085817;28;20104;-58
2022/09/03 08:03:48;;;;;;;1.77;1.20;;;;;;;13.53;55.44;100316.84;5083287;28;20029;-58
2022/09/03 08:06:16;;;;;;;1.23;1.15;;;;;;;13.44;56.65;100266.72;5080593;28;20024;-58
2022/09/03 08:08:44;;;;;;;3.30;1.15;;;;;;;13.86;55.46;100314.31;5085208;28;20020;-58
2022/09/03 08:11:12;;;;;;;1.33;1.23;;;;;;;14.01;55.96;100313.06;5081973;28;20241;-59
2022/09/03 08:13:39;;;;;;;1.63;1.45;;;;;;;14.02;55.66;100297.38;5085100;28;20029;-59
2022/09/03 08:16:07;;;;;;;2.50;1.63;;;;;;;14.19;56.06;100307.38;5082097;28;20037;-59
2022/09/03 08:18:38;;;;;;;1.52;1.23;;;;;;;14.17;53.68;100310.94;5083613;28;20079;-57
2022/09/03 08:21:15;;;;;;;4.35;1.65;;;;;;;13.75;52.91;100270.31;5084986;28;20069;-57
2022/09/03 08:23:49;;;;;;;2.97;1.20;;;;;;;13.73;53.91;100282.53;5084809;28;20223;-58
2022/09/03 08:26:17;;;;;;;1.63;1.30;;;;;;;14.17;54.76;100313.53;5080196;28;20048;-58
2022/09/03 08:28:43;;;;;;;4.30;1.70;;;;;;;14.17;53.97;100317.00;5084783;28;20036;-58
2022/09/03 08:31:20;;;;;;;5.70;1.88;;;;;;;14.31;54.13;100317.47;5084509;28;20020;-59
2022/09/03 08:33:49;;;;;;;1.60;1.50;;;;;;;14.16;53.81;100263.16;5083226;28;20126;-58
2022/09/03 08:36:24;;;;;;;4.40;1.70;;;;;;;14.00;53.25;100261.88;5083891;28;20224;-58
2022/09/03 08:38:53;;;;;;;2.65;1.58;;;;;;;14.32;53.10;100320.91;5081626;28;20036;-59
2022/09/03 08:41:28;;;;;;;4.75;1.70;;;;;;;14.46;52.81;100312.75;5090804;28;20335;-58
2022/09/03 08:44:15;;;;;;;4.35;1.70;;;;;;;14.68;52.78;100318.25;5100058;28;20092;-58
2022/09/03 08:47:06;;;;;;;2.58;1.45;;;;;;;14.91;52.52;100320.19;5085061;28;20214;-59
2022/09/03 08:49:43;;;;;;;4.47;1.17;;;;;;;15.09;50.77;100269.25;5101306;28;20039;-58
2022/09/03 08:52:23;;;;;;;2.03;1.15;;;;;;;15.58;49.26;100316.44;5084449;28;20028;-59
2022/09/03 08:54:51;;;;;;;1.40;1.27;;;;;;;15.47;48.31;100292.44;5084614;28;20029;-59
2022/09/03 08:57:19;;;;;;;3.80;1.40;;;;;;;15.41;47.62;100277.81;5084377;28;20272;-58
2022/09/03 08:59:50;;;;;;;2.72;1.15;;;;;;;15.53;48.22;100272.22;5095494;28;20046;-59
2022/09/03 09:03:00;;;;;;;3.28;1.20;;;;;;;15.80;48.19;100271.38;5098341;28;20202;-59
2022/09/03 09:05:44;;;;;;;3.22;1.30;;;;;;;16.15;47.80;100319.81;5049576;28;20133;-58
2022/09/03 09:08:38;;;;;;;2.35;1.10;;;;;;;16.14;47.49;100291.13;5082315;28;20095;-59
2022/09/03 09:11:32;;;;;;;2.50;1.25;;;;;;;16.46;46.17;100310.03;5084022;28;20026;-59
2022/09/03 09:14:04;;;;;;;1.63;1.23;;;;;;;16.19;46.65;100252.63;5081409;28;20024;-59
2022/09/03 09:16:39;;;;;;;2.85;1.10;;;;;;;16.51;47.13;100326.41;5084033;28;20016;-58
2022/09/03 09:19:29;;;;;;;5.47;1.45;;;;;;;16.35;47.18;100310.44;5082073;28;20031;-61
2022/09/03 09:22:07;;;;;;;1.80;1.23;;;;;;;16.11;48.06;100323.44;5083561;28;20388;-59
2022/09/03 09:24:41;;;;;;;1.95;1.23;;;;;;;16.10;47.52;100310.41;5083941;28;20023;-59
2022/09/03 09:27:07;;;;;;;5.60;1.60;;;;;;;15.79;47.35;100311.44;5083834;28;20358;-58
2022/09/03 09:29:38;;;;;;;3.70;1.65;;;;;;;16.14;46.34;100319.88;5083584;28;20029;-58
2022/09/03 09:32:07;;;;;;;1.70;1.20;;;;;;;16.39;46.37;100302.41;5083942;28;20017;-58
2022/09/03 09:34:37;;;;;;;3.28;1.30;;;;;;;16.27;45.34;100312.44;5080650;28;20016;-59
2022/09/03 09:37:08;;;;;;;0.80;0.80;;;;;;;16.34;44.31;100304.31;5099438;28;20012;-59
2022/09/03 09:39:34;;;;;;;2.80;1.02;;;;;;;16.28;44.11;100295.88;5083561;28;20070;-60
2022/09/03 09:42:11;;;;;;;2.35;1.23;;;;;;;16.33;45.08;100297.41;5081365;28;20012;-60
2022/09/03 09:44:39;;;;;;;2.33;1.10;;;;;;;16.36;44.67;100302.53;5078352;28;20338;-58
2022/09/03 09:47:10;;;;;;;2.35;1.20;;;;;;;16.14;44.44;100258.00;5082814;28;20099;-58
2022/09/03 09:49:49;;;;;;;1.20;1.10;;;;;;;15.57;44.67;100254.66;5080733;28;20028;-58
2022/09/03 09:52:16;;;;;;;1.17;1.08;;;;;;;15.81;44.63;100304.41;5080568;28;20046;-58
2022/09/03 09:54:45;;;;;;;2.47;1.10;;;;;;;15.42;44.77;100265.59;5082426;28;20020;-59
2022/09/03 09:57:21;;;;;;;3.13;1.23;;;;;;;15.70;44.25;100312.56;5084276;28;20055;-59
2022/09/03 09:59:49;;;;;;;2.65;1.20;;;;;;;15.55;46.00;100290.44;5082392;28;20059;-58
2022/09/03 10:02:27;;;;;;;1.48;1.08;;;;;;;15.31;44.63;100253.75;5082634;28;20024;-58
2022/09/03 10:05:10;;;;;;;1.67;0.98;;;;;;;15.57;43.37;100285.16;5080666;28;20100;-58
2022/09/03 10:07:36;;;;;;;3.17;1.20;;;;;;;15.80;43.83;100293.09;5080879;28;20016;-57
2022/09/03 10:10:04;;;;;;;2.67;1.00;;;;;;;15.98;43.69;100281.19;5082404;28;20027;-59
2022/09/03 10:12:34;;;;;;;3.63;1.00;;;;;;;15.77;43.45;100245.31;5078383;28;20031;-59
2022/09/03 10:15:24;;;;;;;1.63;1.05;;;;;;;16.01;43.81;100291.53;5082564;28;20233;-59
2022/09/03 10:17:53;;;;;;;3.55;0.95;;;;;;;16.16;42.68;100278.84;5078750;28;20041;-58
2022/09/03 10:20:29;;;;;;;2.28;1.45;;;;;;;16.01;42.16;100248.88;5082145;28;20066;-58
2022/09/03 10:23:04;;;;;;;1.83;1.02;;;;;;;16.16;41.23;100276.22;5080770;28;20029;-59
2022/09/03 10:25:56;;;;;;;2.35;0.98;;;;;;;16.25;41.81;100291.59;5079784;28;20087;-59
2022/09/03 10:28:25;;;;;;;0.85;0.85;;;;;;;16.17;41.89;100291.00;5082584;28;20031;-58
2022/09/03 10:31:12;;;;;;;1.65;0.90;;;;;;;16.09;43.07;100288.66;5077289;28;20032;-58
2022/09/03 10:34:03;;;;;;;3.60;1.17;;;;;;;15.86;42.37;100297.25;5063233;28;20032;-57
2022/09/03 10:36:41;;;;;;;1.05;1.00;;;;;;;15.74;42.61;100295.06;5080709;28;20120;-58
2022/09/03 10:39:07;;;;;;;3.05;1.30;;;;;;;15.91;42.61;100286.69;5081331;28;20059;-59
2022/09/03 10:41:52;;;;;;;4.53;1.00;;;;;;;15.42;41.58;100291.72;5081396;28;20028;-59
2022/09/03 10:44:24;;;;;;;1.50;1.30;;;;;;;15.20;41.97;100287.16;5075672;28;20032;-59
2022/09/03 10:47:13;;;;;;;1.27;0.98;;;;;;;15.22;42.89;100290.59;5082904;28;20383;-59
2022/09/03 10:49:38;;;;;;;2.67;1.00;;;;;;;15.32;42.93;100292.00;5079839;28;20306;-59
2022/09/03 10:52:23;;;;;;;1.58;1.20;;;;;;;14.96;43.45;100279.19;5079230;28;20029;-59
2022/09/03 10:55:04;;;;;;;3.22;1.20;;;;;;;14.84;42.97;100246.50;5073214;28;20025;-60
2022/09/03 10:57:59;;;;;;;1.95;1.08;;;;;;;15.22;43.12;100290.59;5082328;28;20077;-59
2022/09/03 11:00:28;;;;;;;2.97;1.00;;;;;;;15.10;43.27;100290.97;5073253;28;20096;-59
2022/09/03 11:03:13;;;;;;;1.80;0.80;;;;;;;15.04;42.66;100293.75;5098360;28;20228;-60
2022/09/03 11:05:46;;;;;;;2.00;1.10;;;;;;;14.94;42.93;100286.19;5091581;28;20031;-61
2022/09/03 11:08:24;;;;;;;2.28;1.10;;;;;;;15.15;43.31;100302.13;5103104;28;20028;-60
2022/09/03 11:11:11;;;;;;;1.90;1.00;;;;;;;14.79;43.73;100258.84;5101053;28;20323;-60
2022/09/03 11:13:46;;;;;;;2.53;1.10;;;;;;;14.82;44.20;100239.59;5085851;28;20093;-60
2022/09/03 11:16:33;;;;;;;1.55;1.20;;;;;;;15.04;44.33;100236.38;5086793;28;20036;-60
2022/09/03 11:19:05;;;;;;;0.90;0.90;;;;;;;15.49;43.83;100283.66;5085233;28;20104;-60
2022/09/03 11:21:35;;;;;;;2.33;1.00;;;;;;;15.21;43.04;100230.63;5081275;28;20024;-60
2022/09/03 11:24:07;;;;;;;1.13;1.02;;;;;;;15.60;42.59;100277.22;5085478;28;20044;-60
2022/09/03 11:26:35;;;;;;;5.68;1.10;;;;;;;15.57;43.34;100277.31;5080902;28;20043;-60
2022/09/03 11:29:38;;;;;;;5.47;1.30;;;;;;;15.82;42.84;100274.78;5085247;28;20028;-60
2022/09/03 11:32:23;;;;;;;3.13;1.00;;;;;;;15.84;43.18;100246.84;5061207;28;20238;-59
2022/09/03 11:34:51;;;;;;;1.42;1.00;;;;;;;16.09;43.27;100256.44;5084080;28;20135;-60
2022/09/03 11:37:18;;;;;;;3.47;1.13;;;;;;;15.88;43.00;100219.72;5086270;28;20020;-60
2022/09/03 11:40:04;;;;;;;3.92;1.40;;;;;;;15.91;42.80;100224.84;5085953;28;20031;-61
2022/09/03 11:42:35;;;;;;;1.83;1.20;;;;;;;15.94;42.99;100216.88;5086031;28;20099;-62
2022/09/03 11:45:26;;;;;;;2.97;1.45;;;;;;;16.17;43.58;100257.88;5084255;28;20032;-60
2022/09/03 11:47:53;;;;;;;1.10;1.00;;;;;;;16.19;43.83;100263.06;5084573;28;20040;-60
2022/09/03 11:50:19;;;;;;;3.85;1.30;;;;;;;16.12;43.75;100267.66;5085803;28;20135;-61
2022/09/03 11:52:46;;;;;;;3.65;1.20;;;;;;;15.98;43.67;100264.66;5085413;28;20028;-60
2022/09/03 11:55:24;;;;;;;1.70;1.13;;;;;;;15.68;43.69;100225.59;5085921;28;20029;-60